Date,TemperatureHighF,TemperatureAvgF,TemperatureLowF,DewpointHighF,DewpointAvgF,DewpointLowF,HumidityHigh,HumidityAvg,HumidityLow,PressureMaxIn,PressureMinIn,WindSpeedMaxMPH,WindSpeedAvgMPH,GustSpeedMaxMPH,PrecipitationSumIn
2013-7-1,99.5,78.8,63.7,40.0,33.6,27.2,34,20,11,29.50,29.39,25,4,25,0.00
2013-7-2,100.4,76.3,62.6,48.1,38.4,30.5,58,28,12,29.56,29.44,25,3,25,0.04
2013-7-3,99.1,76.4,59.4,51.3,37.1,24.4,52,28,13,29.62,29.39,15,3,15,0.00
2013-7-4,96.3,77.2,63.1,62.4,37.0,27.3,71,25,14,29.50,29.30,17,3,17,0.08
2013-7-5,93.6,78.7,58.6,47.6,34.6,22.9,66,24,11,29.36,29.27,17,5,17,0.00
2013-7-6,92.7,74.2,51.1,32.7,25.2,13.8,27,17,12,29.30,29.24,22,4,22,0.00
2013-7-7,92.1,75.9,54.0,33.5,27.4,20.3,34,17,12,29.41,29.30,22,5,22,0.00
2013-7-8,91.9,76.9,55.2,32.2,25.9,15.3,25,15,12,29.50,29.36,20,4,20,0.00
2013-7-9,93.2,74.2,52.3,32.8,25.2,15.3,35,17,11,29.56,29.47,17,3,17,0.00
2013-7-10,91.2,74.9,50.4,32.2,25.6,15.3,31,17,12,29.59,29.47,23,5,23,0.00
2013-7-11,88.7,77.1,61.2,31.5,26.0,18.5,19,15,13,29.50,29.39,18,6,20,0.00
2013-7-12,90.7,71.4,48.2,33.2,25.4,15.8,38,19,12,29.50,29.36,17,2,17,0.00
2013-7-13,89.2,72.1,51.3,31.9,24.3,12.5,26,17,13,29.50,29.41,17,4,17,0.00
2013-7-14,94.8,74.1,54.1,33.0,26.4,20.2,32,18,11,29.56,29.44,18,3,18,0.00
2013-7-15,93.2,74.8,56.5,33.0,27.9,20.7,28,18,12,29.56,29.33,17,2,17,0.00
2013-7-16,88.5,75.0,58.8,35.0,27.0,18.6,32,17,13,29.47,29.36,19,5,19,0.00
2013-7-17,92.1,71.4,46.0,32.3,25.1,15.3,38,19,12,29.59,29.47,16,3,16,0.00
2013-7-18,98.4,75.8,53.8,40.5,29.4,22.2,38,19,11,29.59,29.50,14,2,14,0.00
2013-7-19,100.8,80.0,59.5,40.6,31.3,24.0,27,18,11,29.53,29.44,13,3,13,0.00
2013-7-20,102.7,80.9,60.3,45.4,30.7,20.4,45,17,11,29.47,29.39,17,3,17,0.00
2013-7-21,102.0,83.1,64.9,40.6,33.2,25.2,26,17,11,29.47,29.41,17,4,17,0.00
2013-7-22,97.9,80.8,65.7,40.7,32.1,24.4,32,18,11,29.62,29.44,23,3,23,0.04
2013-7-23,91.0,73.7,58.8,58.8,37.6,27.5,89,31,13,29.59,29.53,18,2,18,0.04
2013-7-24,91.6,75.9,55.4,51.5,36.3,30.5,80,27,13,29.56,29.50,18,3,18,0.00
2013-7-25,90.9,71.2,62.2,58.7,41.6,32.2,86,39,15,29.65,29.53,29,3,29,0.08
2013-7-26,93.0,74.2,58.1,62.6,42.1,30.4,82,39,14,29.68,29.59,22,3,22,0.00
2013-7-27,93.2,75.7,55.0,44.2,32.5,25.7,66,23,12,29.65,29.44,17,4,17,0.04
2013-7-28,92.8,69.1,54.0,44.6,30.4,24.4,70,26,12,29.50,29.39,17,3,17,0.00
2013-7-29,88.9,73.1,53.4,33.2,27.8,22.8,39,20,13,29.56,29.41,19,4,19,0.00
2013-7-30,92.7,75.0,54.3,35.3,28.2,21.7,40,19,12,29.59,29.53,15,4,15,0.00
2013-7-31,88.0,73.7,57.4,38.7,28.8,20.6,47,20,13,29.71,29.50,15,4,17,0.00